sensor_id;sensor_type;location;lat;lon;timestamp;P1;durP1;ratioP1;P2;durP2;ratioP2
37891;SDS011;45797;47.466;9.486;2022-07-10T00:01:22;2.53;;;1.30;;
37891;SDS011;45797;47.466;9.486;2022-07-10T00:06:24;4.05;;;1.40;;
37891;SDS011;45797;47.466;9.486;2022-07-10T00:16:33;2.20;;;1.20;;
37891;SDS011;45797;47.466;9.486;2022-07-10T00:21:34;4.10;;;1.50;;
37891;SDS011;45797;47.466;9.486;2022-07-10T00:26:34;3.35;;;1.35;;
37891;SDS011;45797;47.466;9.486;2022-07-10T00:31:40;2.50;;;1.30;;
37891;SDS011;45797;47.466;9.486;2022-07-10T00:36:41;2.50;;;1.20;;
37891;SDS011;45797;47.466;9.486;2022-07-10T00:41:47;4.15;;;1.13;;
37891;SDS011;45797;47.466;9.486;2022-07-10T00:46:49;2.60;;;1.20;;
37891;SDS011;45797;47.466;9.486;2022-07-10T00:51:56;2.00;;;1.00;;
37891;SDS011;45797;47.466;9.486;2022-07-10T00:57:05;1.95;;;1.20;;
37891;SDS011;45797;47.466;9.486;2022-07-10T01:02:07;2.75;;;1.10;;
37891;SDS011;45797;47.466;9.486;2022-07-10T01:07:16;2.15;;;1.10;;
37891;SDS011;45797;47.466;9.486;2022-07-10T01:12:16;1.83;;;1.00;;
37891;SDS011;45797;47.466;9.486;2022-07-10T01:17:18;2.15;;;1.30;;
37891;SDS011;45797;47.466;9.486;2022-07-10T01:22:20;2.13;;;1.13;;
37891;SDS011;45797;47.466;9.486;2022-07-10T01:27:21;2.00;;;1.02;;
37891;SDS011;45797;47.466;9.486;2022-07-10T01:32:22;3.42;;;1.20;;
37891;SDS011;45797;47.466;9.486;2022-07-10T01:37:24;2.55;;;1.10;;
37891;SDS011;45797;47.466;9.486;2022-07-10T01:47:26;2.60;;;1.33;;
37891;SDS011;45797;47.466;9.486;2022-07-10T01:52:27;2.45;;;1.20;;
37891;SDS011;45797;47.466;9.486;2022-07-10T01:57:36;2.58;;;1.30;;
37891;SDS011;45797;47.466;9.486;2022-07-10T02:02:46;3.05;;;1.20;;
37891;SDS011;45797;47.466;9.486;2022-07-10T02:08:08;4.53;;;1.38;;
37891;SDS011;45797;47.466;9.486;2022-07-10T02:13:13;3.00;;;1.30;;
37891;SDS011;45797;47.466;9.486;2022-07-10T02:18:18;4.28;;;1.80;;
37891;SDS011;45797;47.466;9.486;2022-07-10T02:23:18;2.38;;;1.35;;
37891;SDS011;45797;47.466;9.486;2022-07-10T02:28:18;2.60;;;1.50;;
37891;SDS011;45797;47.466;9.486;2022-07-10T02:33:20;3.33;;;1.48;;
37891;SDS011;45797;47.466;9.486;2022-07-10T02:38:20;3.90;;;1.98;;
37891;SDS011;45797;47.466;9.486;2022-07-10T02:43:21;3.78;;;2.10;;
37891;SDS011;45797;47.466;9.486;2022-07-10T02:48:27;4.22;;;1.90;;
37891;SDS011;45797;47.466;9.486;2022-07-10T02:53:28;2.80;;;1.65;;
37891;SDS011;45797;47.466;9.486;2022-07-10T02:58:28;3.28;;;2.10;;
37891;SDS011;45797;47.466;9.486;2022-07-10T03:03:28;5.97;;;2.42;;
37891;SDS011;45797;47.466;9.486;2022-07-10T03:08:29;3.53;;;2.28;;
37891;SDS011;45797;47.466;9.486;2022-07-10T03:13:31;3.97;;;2.20;;
37891;SDS011;45797;47.466;9.486;2022-07-10T03:18:30;4.88;;;2.42;;
37891;SDS011;45797;47.466;9.486;2022-07-10T03:23:41;7.70;;;2.40;;
37891;SDS011;45797;47.466;9.486;2022-07-10T03:28:44;3.35;;;2.30;;
37891;SDS011;45797;47.466;9.486;2022-07-10T03:33:44;4.15;;;2.30;;
37891;SDS011;45797;47.466;9.486;2022-07-10T03:38:44;3.53;;;2.20;;
37891;SDS011;45797;47.466;9.486;2022-07-10T03:43:56;6.00;;;2.28;;
37891;SDS011;45797;47.466;9.486;2022-07-10T03:48:56;3.40;;;2.13;;
37891;SDS011;45797;47.466;9.486;2022-07-10T03:53:57;6.53;;;2.50;;
37891;SDS011;45797;47.466;9.486;2022-07-10T03:58:56;3.88;;;2.50;;
37891;SDS011;45797;47.466;9.486;2022-07-10T04:04:02;5.32;;;2.50;;
37891;SDS011;45797;47.466;9.486;2022-07-10T04:09:09;4.53;;;2.70;;
37891;SDS011;45797;47.466;9.486;2022-07-10T04:14:09;5.05;;;2.47;;
37891;SDS011;45797;47.466;9.486;2022-07-10T04:19:10;5.82;;;2.70;;
37891;SDS011;45797;47.466;9.486;2022-07-10T04:24:11;5.28;;;2.33;;
37891;SDS011;45797;47.466;9.486;2022-07-10T04:29:12;4.00;;;2.50;;
37891;SDS011;45797;47.466;9.486;2022-07-10T04:34:12;3.92;;;2.42;;
37891;SDS011;45797;47.466;9.486;2022-07-10T04:39:19;3.80;;;2.22;;
37891;SDS011;45797;47.466;9.486;2022-07-10T04:44:25;4.00;;;2.35;;
37891;SDS011;45797;47.466;9.486;2022-07-10T04:49:34;4.43;;;2.50;;
37891;SDS011;45797;47.466;9.486;2022-07-10T04:54:34;4.00;;;2.20;;
37891;SDS011;45797;47.466;9.486;2022-07-10T04:59:33;5.03;;;2.58;;
37891;SDS011;45797;47.466;9.486;2022-07-10T05:04:35;5.90;;;2.80;;
37891;SDS011;45797;47.466;9.486;2022-07-10T05:09:36;6.57;;;2.70;;
37891;SDS011;45797;47.466;9.486;2022-07-10T05:14:35;5.68;;;2.70;;
37891;SDS011;45797;47.466;9.486;2022-07-10T05:19:42;4.13;;;2.70;;
37891;SDS011;45797;47.466;9.486;2022-07-10T05:24:46;4.90;;;2.20;;
37891;SDS011;45797;47.466;9.486;2022-07-10T05:29:46;5.80;;;2.65;;
37891;SDS011;45797;47.466;9.486;2022-07-10T05:34:52;5.10;;;2.70;;
37891;SDS011;45797;47.466;9.486;2022-07-10T05:39:53;3.97;;;2.63;;
37891;SDS011;45797;47.466;9.486;2022-07-10T05:44:57;4.22;;;2.63;;
37891;SDS011;45797;47.466;9.486;2022-07-10T05:49:57;4.28;;;2.60;;
37891;SDS011;45797;47.466;9.486;2022-07-10T05:54:57;3.85;;;2.50;;
37891;SDS011;45797;47.466;9.486;2022-07-10T05:59:57;4.03;;;2.75;;
37891;SDS011;45797;47.466;9.486;2022-07-10T06:05:01;4.07;;;2.70;;
37891;SDS011;45797;47.466;9.486;2022-07-10T06:10:03;4.15;;;2.47;;
37891;SDS011;45797;47.466;9.486;2022-07-10T06:15:03;4.32;;;2.80;;
37891;SDS011;45797;47.466;9.486;2022-07-10T06:20:06;3.85;;;2.70;;
37891;SDS011;45797;47.466;9.486;2022-07-10T06:30:12;5.25;;;2.30;;
37891;SDS011;45797;47.466;9.486;2022-07-10T06:40:26;4.82;;;2.90;;
37891;SDS011;45797;47.466;9.486;2022-07-10T06:45:45;5.72;;;2.90;;
37891;SDS011;45797;47.466;9.486;2022-07-10T06:50:47;4.00;;;2.67;;
37891;SDS011;45797;47.466;9.486;2022-07-10T06:55:47;4.50;;;2.72;;
37891;SDS011;45797;47.466;9.486;2022-07-10T07:00:47;4.82;;;2.90;;
37891;SDS011;45797;47.466;9.486;2022-07-10T07:05:47;4.68;;;2.80;;
37891;SDS011;45797;47.466;9.486;2022-07-10T07:15:51;5.22;;;2.70;;
37891;SDS011;45797;47.466;9.486;2022-07-10T07:21:10;4.18;;;2.63;;
37891;SDS011;45797;47.466;9.486;2022-07-10T07:31:31;5.43;;;2.60;;
37891;SDS011;45797;47.466;9.486;2022-07-10T07:36:32;7.50;;;2.90;;
37891;SDS011;45797;47.466;9.486;2022-07-10T07:41:32;9.05;;;3.50;;
37891;SDS011;45797;47.466;9.486;2022-07-10T07:46:32;5.82;;;2.92;;
37891;SDS011;45797;47.466;9.486;2022-07-10T07:51:33;5.32;;;2.95;;
37891;SDS011;45797;47.466;9.486;2022-07-10T07:56:46;4.60;;;2.70;;
37891;SDS011;45797;47.466;9.486;2022-07-10T08:01:47;6.72;;;3.10;;
37891;SDS011;45797;47.466;9.486;2022-07-10T08:06:47;7.53;;;3.10;;
37891;SDS011;45797;47.466;9.486;2022-07-10T08:11:54;5.05;;;2.92;;
37891;SDS011;45797;47.466;9.486;2022-07-10T08:22:25;3.50;;;2.30;;
37891;SDS011;45797;47.466;9.486;2022-07-10T08:27:30;4.70;;;2.85;;
37891;SDS011;45797;47.466;9.486;2022-07-10T08:32:32;4.28;;;2.50;;
37891;SDS011;45797;47.466;9.486;2022-07-10T08:37:38;5.03;;;2.80;;
37891;SDS011;45797;47.466;9.486;2022-07-10T08:42:40;4.80;;;2.95;;
37891;SDS011;45797;47.466;9.486;2022-07-10T08:47:43;4.47;;;2.72;;
37891;SDS011;45797;47.466;9.486;2022-07-10T08:52:59;4.03;;;2.42;;
37891;SDS011;45797;47.466;9.486;2022-07-10T08:58:05;4.35;;;2.70;;
37891;SDS011;45797;47.466;9.486;2022-07-10T09:03:09;4.97;;;2.60;;
37891;SDS011;45797;47.466;9.486;2022-07-10T09:19:16;6.90;;;3.13;;
37891;SDS011;45797;47.466;9.486;2022-07-10T09:24:21;4.93;;;2.53;;
37891;SDS011;45797;47.466;9.486;2022-07-10T09:29:22;5.03;;;3.40;;
37891;SDS011;45797;47.466;9.486;2022-07-10T09:39:52;4.93;;;3.10;;
37891;SDS011;45797;47.466;9.486;2022-07-10T09:50:24;4.15;;;2.55;;
37891;SDS011;45797;47.466;9.486;2022-07-10T10:00:47;5.00;;;2.70;;
37891;SDS011;45797;47.466;9.486;2022-07-10T10:11:27;4.95;;;2.60;;
37891;SDS011;45797;47.466;9.486;2022-07-10T10:16:30;4.07;;;2.90;;
37891;SDS011;45797;47.466;9.486;2022-07-10T10:21:32;4.57;;;2.40;;
37891;SDS011;45797;47.466;9.486;2022-07-10T10:31:37;3.95;;;2.60;;
37891;SDS011;45797;47.466;9.486;2022-07-10T10:41:48;3.83;;;2.58;;
37891;SDS011;45797;47.466;9.486;2022-07-10T10:52:10;3.75;;;2.50;;
37891;SDS011;45797;47.466;9.486;2022-07-10T11:02:22;4.72;;;2.70;;
37891;SDS011;45797;47.466;9.486;2022-07-10T11:13:11;4.85;;;2.65;;
37891;SDS011;45797;47.466;9.486;2022-07-10T11:18:17;4.90;;;3.17;;
37891;SDS011;45797;47.466;9.486;2022-07-10T11:29:01;4.05;;;2.97;;
37891;SDS011;45797;47.466;9.486;2022-07-10T11:34:05;4.43;;;2.70;;
37891;SDS011;45797;47.466;9.486;2022-07-10T11:39:12;3.40;;;2.55;;
37891;SDS011;45797;47.466;9.486;2022-07-10T11:44:17;5.05;;;2.95;;
37891;SDS011;45797;47.466;9.486;2022-07-10T11:49:20;5.43;;;2.80;;
37891;SDS011;45797;47.466;9.486;2022-07-10T11:59:25;4.97;;;2.72;;
37891;SDS011;45797;47.466;9.486;2022-07-10T12:04:43;4.47;;;2.80;;
37891;SDS011;45797;47.466;9.486;2022-07-10T12:09:52;5.30;;;2.72;;
37891;SDS011;45797;47.466;9.486;2022-07-10T12:14:53;4.28;;;2.40;;
37891;SDS011;45797;47.466;9.486;2022-07-10T12:19:53;4.68;;;2.90;;
37891;SDS011;45797;47.466;9.486;2022-07-10T12:24:56;3.05;;;2.38;;
37891;SDS011;45797;47.466;9.486;2022-07-10T12:30:00;5.78;;;2.60;;
37891;SDS011;45797;47.466;9.486;2022-07-10T12:35:01;3.45;;;2.40;;
37891;SDS011;45797;47.466;9.486;2022-07-10T12:40:02;3.38;;;2.30;;
37891;SDS011;45797;47.466;9.486;2022-07-10T12:45:11;4.60;;;2.70;;
37891;SDS011;45797;47.466;9.486;2022-07-10T12:55:24;4.07;;;2.58;;
37891;SDS011;45797;47.466;9.486;2022-07-10T13:00:46;4.25;;;2.80;;
37891;SDS011;45797;47.466;9.486;2022-07-10T13:05:49;5.60;;;2.83;;
37891;SDS011;45797;47.466;9.486;2022-07-10T13:10:58;3.45;;;2.30;;
37891;SDS011;45797;47.466;9.486;2022-07-10T13:16:05;3.70;;;2.35;;
37891;SDS011;45797;47.466;9.486;2022-07-10T13:21:07;3.22;;;2.08;;
37891;SDS011;45797;47.466;9.486;2022-07-10T13:26:08;3.90;;;2.40;;
37891;SDS011;45797;47.466;9.486;2022-07-10T13:31:14;3.50;;;2.47;;
37891;SDS011;45797;47.466;9.486;2022-07-10T13:36:14;4.05;;;2.30;;
37891;SDS011;45797;47.466;9.486;2022-07-10T13:46:26;3.10;;;2.28;;
37891;SDS011;45797;47.466;9.486;2022-07-10T13:51:44;4.13;;;2.40;;
37891;SDS011;45797;47.466;9.486;2022-07-10T13:56:45;3.85;;;2.75;;
37891;SDS011;45797;47.466;9.486;2022-07-10T14:01:47;3.28;;;2.42;;
37891;SDS011;45797;47.466;9.486;2022-07-10T14:12:05;4.15;;;2.70;;
37891;SDS011;45797;47.466;9.486;2022-07-10T14:17:05;3.55;;;2.45;;
37891;SDS011;45797;47.466;9.486;2022-07-10T14:22:05;3.80;;;2.70;;
37891;SDS011;45797;47.466;9.486;2022-07-10T14:27:08;2.95;;;2.15;;
37891;SDS011;45797;47.466;9.486;2022-07-10T14:32:09;4.30;;;2.28;;
37891;SDS011;45797;47.466;9.486;2022-07-10T14:37:09;4.45;;;2.40;;
37891;SDS011;45797;47.466;9.486;2022-07-10T14:42:12;3.85;;;2.30;;
37891;SDS011;45797;47.466;9.486;2022-07-10T14:47:13;5.07;;;2.60;;
37891;SDS011;45797;47.466;9.486;2022-07-10T14:52:18;3.25;;;2.42;;
37891;SDS011;45797;47.466;9.486;2022-07-10T14:57:21;4.53;;;2.35;;
37891;SDS011;45797;47.466;9.486;2022-07-10T15:02:27;5.00;;;2.75;;
37891;SDS011;45797;47.466;9.486;2022-07-10T15:07:29;3.97;;;2.50;;
37891;SDS011;45797;47.466;9.486;2022-07-10T15:12:29;5.50;;;3.17;;
37891;SDS011;45797;47.466;9.486;2022-07-10T15:17:31;3.72;;;2.70;;
37891;SDS011;45797;47.466;9.486;2022-07-10T15:22:31;7.10;;;2.58;;
37891;SDS011;45797;47.466;9.486;2022-07-10T15:27:32;3.80;;;2.58;;
37891;SDS011;45797;47.466;9.486;2022-07-10T15:32:38;3.42;;;2.42;;
37891;SDS011;45797;47.466;9.486;2022-07-10T15:37:38;3.28;;;2.42;;
37891;SDS011;45797;47.466;9.486;2022-07-10T15:42:45;3.15;;;2.30;;
37891;SDS011;45797;47.466;9.486;2022-07-10T15:47:45;3.42;;;2.28;;
37891;SDS011;45797;47.466;9.486;2022-07-10T15:57:51;5.15;;;2.40;;
37891;SDS011;45797;47.466;9.486;2022-07-10T16:02:51;3.70;;;2.53;;
37891;SDS011;45797;47.466;9.486;2022-07-10T16:07:56;7.00;;;3.90;;
37891;SDS011;45797;47.466;9.486;2022-07-10T16:18:02;4.10;;;2.55;;
37891;SDS011;45797;47.466;9.486;2022-07-10T16:23:04;4.07;;;3.05;;
37891;SDS011;45797;47.466;9.486;2022-07-10T16:28:04;3.33;;;2.60;;
37891;SDS011;45797;47.466;9.486;2022-07-10T16:33:09;4.68;;;2.53;;
37891;SDS011;45797;47.466;9.486;2022-07-10T16:43:40;4.50;;;3.17;;
37891;SDS011;45797;47.466;9.486;2022-07-10T16:48:50;4.57;;;3.85;;
37891;SDS011;45797;47.466;9.486;2022-07-10T16:53:56;13.48;;;8.88;;
37891;SDS011;45797;47.466;9.486;2022-07-10T16:58:58;33.65;;;20.08;;
37891;SDS011;45797;47.466;9.486;2022-07-10T17:03:57;28.70;;;17.55;;
37891;SDS011;45797;47.466;9.486;2022-07-10T17:09:06;33.00;;;19.05;;
37891;SDS011;45797;47.466;9.486;2022-07-10T17:19:17;6.95;;;4.30;;
37891;SDS011;45797;47.466;9.486;2022-07-10T17:24:18;5.82;;;3.30;;
37891;SDS011;45797;47.466;9.486;2022-07-10T17:29:23;3.58;;;2.25;;
37891;SDS011;45797;47.466;9.486;2022-07-10T17:39:29;3.78;;;2.15;;
37891;SDS011;45797;47.466;9.486;2022-07-10T17:44:30;3.75;;;2.13;;
37891;SDS011;45797;47.466;9.486;2022-07-10T17:49:29;4.85;;;2.53;;
37891;SDS011;45797;47.466;9.486;2022-07-10T17:59:40;3.15;;;1.70;;
37891;SDS011;45797;47.466;9.486;2022-07-10T18:04:39;2.70;;;1.73;;
37891;SDS011;45797;47.466;9.486;2022-07-10T18:09:46;2.40;;;1.55;;
37891;SDS011;45797;47.466;9.486;2022-07-10T18:14:46;4.05;;;1.85;;
37891;SDS011;45797;47.466;9.486;2022-07-10T18:19:47;2.90;;;1.60;;
37891;SDS011;45797;47.466;9.486;2022-07-10T18:24:50;4.97;;;1.55;;
37891;SDS011;45797;47.466;9.486;2022-07-10T18:29:52;3.08;;;1.80;;
37891;SDS011;45797;47.466;9.486;2022-07-10T18:34:57;2.50;;;1.58;;
37891;SDS011;45797;47.466;9.486;2022-07-10T18:39:57;2.78;;;1.75;;
37891;SDS011;45797;47.466;9.486;2022-07-10T18:44:59;4.60;;;1.75;;
37891;SDS011;45797;47.466;9.486;2022-07-10T18:50:15;3.08;;;1.70;;
37891;SDS011;45797;47.466;9.486;2022-07-10T18:55:21;4.55;;;2.63;;
37891;SDS011;45797;47.466;9.486;2022-07-10T19:00:21;3.35;;;1.70;;
37891;SDS011;45797;47.466;9.486;2022-07-10T19:05:24;2.97;;;1.60;;
37891;SDS011;45797;47.466;9.486;2022-07-10T19:15:34;2.42;;;1.40;;
37891;SDS011;45797;47.466;9.486;2022-07-10T19:20:34;3.08;;;1.30;;
37891;SDS011;45797;47.466;9.486;2022-07-10T19:25:34;2.30;;;1.23;;
37891;SDS011;45797;47.466;9.486;2022-07-10T19:30:36;2.25;;;1.30;;
37891;SDS011;45797;47.466;9.486;2022-07-10T19:35:37;3.28;;;1.13;;
37891;SDS011;45797;47.466;9.486;2022-07-10T19:40:38;2.63;;;1.40;;
37891;SDS011;45797;47.466;9.486;2022-07-10T19:45:38;3.42;;;1.55;;
37891;SDS011;45797;47.466;9.486;2022-07-10T19:55:49;2.28;;;1.20;;
37891;SDS011;45797;47.466;9.486;2022-07-10T20:00:50;3.95;;;1.60;;
37891;SDS011;45797;47.466;9.486;2022-07-10T20:05:50;5.00;;;1.20;;
37891;SDS011;45797;47.466;9.486;2022-07-10T20:15:56;3.05;;;1.02;;
37891;SDS011;45797;47.466;9.486;2022-07-10T20:20:57;3.50;;;1.25;;
37891;SDS011;45797;47.466;9.486;2022-07-10T20:31:09;5.15;;;1.00;;
37891;SDS011;45797;47.466;9.486;2022-07-10T20:41:34;2.25;;;1.05;;
37891;SDS011;45797;47.466;9.486;2022-07-10T20:51:45;1.67;;;0.85;;
37891;SDS011;45797;47.466;9.486;2022-07-10T20:56:45;2.42;;;1.05;;
37891;SDS011;45797;47.466;9.486;2022-07-10T21:01:47;2.33;;;0.90;;
37891;SDS011;45797;47.466;9.486;2022-07-10T21:06:47;2.65;;;1.00;;
37891;SDS011;45797;47.466;9.486;2022-07-10T21:11:48;1.77;;;0.88;;
37891;SDS011;45797;47.466;9.486;2022-07-10T21:16:50;2.05;;;0.93;;
37891;SDS011;45797;47.466;9.486;2022-07-10T21:21:49;3.00;;;0.90;;
37891;SDS011;45797;47.466;9.486;2022-07-10T21:26:50;1.70;;;0.77;;
37891;SDS011;45797;47.466;9.486;2022-07-10T21:31:52;2.95;;;0.85;;
37891;SDS011;45797;47.466;9.486;2022-07-10T21:36:52;2.92;;;0.80;;
37891;SDS011;45797;47.466;9.486;2022-07-10T21:41:57;3.45;;;1.00;;
37891;SDS011;45797;47.466;9.486;2022-07-10T21:46:58;1.88;;;0.80;;
37891;SDS011;45797;47.466;9.486;2022-07-10T21:51:58;2.40;;;1.00;;
37891;SDS011;45797;47.466;9.486;2022-07-10T21:56:57;2.60;;;0.90;;
37891;SDS011;45797;47.466;9.486;2022-07-10T22:01:58;3.70;;;0.90;;
37891;SDS011;45797;47.466;9.486;2022-07-10T22:12:02;1.50;;;0.75;;
37891;SDS011;45797;47.466;9.486;2022-07-10T22:17:03;3.55;;;0.82;;
37891;SDS011;45797;47.466;9.486;2022-07-10T22:22:03;2.05;;;0.80;;
37891;SDS011;45797;47.466;9.486;2022-07-10T22:27:04;2.40;;;0.98;;
37891;SDS011;45797;47.466;9.486;2022-07-10T22:32:05;2.63;;;1.00;;
37891;SDS011;45797;47.466;9.486;2022-07-10T22:37:11;2.95;;;0.85;;
37891;SDS011;45797;47.466;9.486;2022-07-10T22:42:17;3.67;;;1.10;;
37891;SDS011;45797;47.466;9.486;2022-07-10T22:47:18;1.35;;;0.70;;
37891;SDS011;45797;47.466;9.486;2022-07-10T22:52:18;2.05;;;0.95;;
37891;SDS011;45797;47.466;9.486;2022-07-10T23:02:29;2.97;;;0.80;;
37891;SDS011;45797;47.466;9.486;2022-07-10T23:07:34;2.42;;;1.00;;
37891;SDS011;45797;47.466;9.486;2022-07-10T23:12:34;1.65;;;0.80;;
37891;SDS011;45797;47.466;9.486;2022-07-10T23:17:35;3.75;;;1.00;;
37891;SDS011;45797;47.466;9.486;2022-07-10T23:22:42;2.20;;;0.80;;
37891;SDS011;45797;47.466;9.486;2022-07-10T23:27:43;1.58;;;0.80;;
37891;SDS011;45797;47.466;9.486;2022-07-10T23:32:44;1.85;;;0.85;;
37891;SDS011;45797;47.466;9.486;2022-07-10T23:37:44;1.60;;;0.88;;
37891;SDS011;45797;47.466;9.486;2022-07-10T23:42:46;2.35;;;1.00;;
37891;SDS011;45797;47.466;9.486;2022-07-10T23:47:51;1.75;;;0.95;;
37891;SDS011;45797;47.466;9.486;2022-07-10T23:52:53;1.60;;;0.90;;
37891;SDS011;45797;47.466;9.486;2022-07-10T23:57:59;2.47;;;0.90;;
